createdAt,value
2023-02-03T00:01:58.308Z,10.98
2023-02-03T00:04:25.447Z,10.57
2023-02-03T00:06:52.010Z,14.63
2023-02-03T00:09:19.938Z,10.35
2023-02-03T00:11:46.935Z,10.88
2023-02-03T00:14:13.442Z,10.75
2023-02-03T00:16:40.076Z,12.30
2023-02-03T00:19:07.113Z,9.98
2023-02-03T00:21:34.090Z,10.65
2023-02-03T00:24:00.583Z,14.10
2023-02-03T00:26:30.222Z,12.05
2023-02-03T00:28:59.870Z,9.70
2023-02-03T00:31:28.642Z,12.67
2023-02-03T00:33:57.680Z,12.82
2023-02-03T00:36:25.615Z,9.82
2023-02-03T00:38:52.508Z,12.63
2023-02-03T00:41:21.061Z,11.38
2023-02-03T00:43:48.502Z,7.97
2023-02-03T00:46:15.696Z,11.90
2023-02-03T00:48:42.776Z,15.10
2023-02-03T00:51:09.280Z,6.85
2023-02-03T00:53:36.271Z,12.10
2023-02-03T00:56:03.469Z,10.82
2023-02-03T00:58:29.931Z,8.05
2023-02-03T01:00:57.233Z,10.10
2023-02-03T01:03:25.030Z,14.32
2023-02-03T01:05:51.906Z,15.73
2023-02-03T01:08:19.670Z,10.65
2023-02-03T01:10:46.397Z,14.15
2023-02-03T01:13:13.127Z,13.98
2023-02-03T01:15:45.766Z,8.90
2023-02-03T01:18:12.720Z,10.32
2023-02-03T01:20:39.856Z,10.52
2023-02-03T01:23:06.430Z,11.07
2023-02-03T01:25:35.866Z,11.38
2023-02-03T01:28:02.452Z,15.43
2023-02-03T01:30:29.655Z,12.05
2023-02-03T01:32:56.309Z,12.13
2023-02-03T01:35:22.763Z,12.98
2023-02-03T01:37:49.416Z,12.63
2023-02-03T01:40:16.402Z,7.75
2023-02-03T01:42:42.926Z,10.70
2023-02-03T01:45:23.985Z,11.23
2023-02-03T01:48:10.740Z,11.95
2023-02-03T01:50:57.408Z,11.35
2023-02-03T01:53:44.480Z,9.77
2023-02-03T01:56:36.391Z,10.88
2023-02-03T01:59:24.462Z,6.50
2023-02-03T02:02:12.897Z,10.25
2023-02-03T02:05:03.361Z,8.57
2023-02-03T02:07:31.802Z,9.30
2023-02-03T02:09:59.476Z,5.22
2023-02-03T02:12:26.293Z,5.10
2023-02-03T02:14:53.280Z,5.95
2023-02-03T02:17:57.535Z,9.23
2023-02-03T02:20:48.961Z,7.15
2023-02-03T02:23:41.524Z,12.18
2023-02-03T02:26:37.236Z,4.18
2023-02-03T02:29:21.109Z,5.63
2023-02-03T02:31:59.821Z,6.93
2023-02-03T02:34:39.313Z,5.07
2023-02-03T02:37:24.508Z,5.07
2023-02-03T02:40:02.771Z,3.08
2023-02-03T02:42:46.587Z,5.95
2023-02-03T02:45:39.858Z,11.43
2023-02-03T02:48:16.391Z,8.85
2023-02-03T02:50:46.673Z,7.30
2023-02-03T02:53:15.395Z,12.48
2023-02-03T02:55:46.434Z,9.00
2023-02-03T02:58:16.491Z,8.20
2023-02-03T03:00:45.688Z,6.50
2023-02-03T03:03:15.281Z,7.07
2023-02-03T03:05:48.662Z,7.40
2023-02-03T03:08:22.990Z,5.07
2023-02-03T03:10:51.740Z,10.30
2023-02-03T03:13:25.847Z,6.63
2023-02-03T03:15:56.432Z,5.28
2023-02-03T03:18:44.732Z,6.03
2023-02-03T03:21:15.814Z,12.57
2023-02-03T03:23:47.009Z,8.00
2023-02-03T03:26:21.223Z,11.82
2023-02-03T03:28:51.888Z,8.05
2023-02-03T03:31:19.945Z,11.93
2023-02-03T03:33:48.591Z,7.18
2023-02-03T03:36:29.522Z,8.30
2023-02-03T03:39:03.738Z,6.82
2023-02-03T03:41:41.254Z,8.18
2023-02-03T03:44:13.165Z,7.50
2023-02-03T03:46:49.646Z,8.00
2023-02-03T03:49:19.275Z,11.35
2023-02-03T03:52:04.533Z,13.60
2023-02-03T03:54:32.689Z,14.88
2023-02-03T03:57:15.210Z,11.65
2023-02-03T03:59:46.431Z,9.35
2023-02-03T04:02:14.824Z,8.63
2023-02-03T04:04:43.887Z,6.78
2023-02-03T04:07:12.307Z,11.90
2023-02-03T04:09:39.988Z,10.32
2023-02-03T04:12:16.382Z,10.35
2023-02-03T04:14:43.080Z,6.90
2023-02-03T04:17:09.899Z,4.63
2023-02-03T04:19:36.359Z,6.88
2023-02-03T04:22:02.826Z,3.60
2023-02-03T04:24:29.842Z,3.35
2023-02-03T04:26:56.587Z,5.70
2023-02-03T04:29:23.106Z,6.00
2023-02-03T04:31:49.890Z,4.38
2023-02-03T04:34:16.695Z,3.95
2023-02-03T04:36:43.229Z,6.53
2023-02-03T04:39:09.966Z,8.40
2023-02-03T04:41:37.153Z,8.52
2023-02-03T04:44:04.056Z,5.03
2023-02-03T04:46:30.548Z,5.35
2023-02-03T04:48:57.923Z,5.85
2023-02-03T04:51:24.612Z,4.13
2023-02-03T04:53:51.073Z,5.40
2023-02-03T04:56:18.028Z,7.00
2023-02-03T04:58:44.507Z,8.45
2023-02-03T05:01:11.555Z,4.65
2023-02-03T05:03:38.167Z,6.38
2023-02-03T05:06:05.689Z,7.80
2023-02-03T05:08:33.680Z,5.63
2023-02-03T05:11:02.124Z,5.05
2023-02-03T05:13:29.508Z,6.38
2023-02-03T05:15:56.217Z,5.80
2023-02-03T05:18:22.987Z,5.75
2023-02-03T05:20:49.637Z,8.02
2023-02-03T05:23:16.318Z,10.07
2023-02-03T05:25:44.605Z,8.30
2023-02-03T05:28:11.283Z,4.88
2023-02-03T05:30:38.086Z,7.50
2023-02-03T05:33:04.522Z,9.70
2023-02-03T05:35:31.405Z,11.63
2023-02-03T05:37:59.405Z,6.18
2023-02-03T05:40:45.347Z,4.30
2023-02-03T05:43:12.153Z,7.68
2023-02-03T05:45:38.912Z,5.45
2023-02-03T05:48:07.276Z,5.40
2023-02-03T05:50:38.110Z,5.18
2023-02-03T05:53:09.570Z,7.13
2023-02-03T05:55:36.788Z,5.05
2023-02-03T05:58:04.588Z,8.68
2023-02-03T06:00:30.995Z,6.00
2023-02-03T06:03:02.179Z,9.23
2023-02-03T06:05:30.319Z,7.88
2023-02-03T06:07:56.885Z,8.25
2023-02-03T06:10:23.948Z,7.22
2023-02-03T06:12:50.908Z,7.82
2023-02-03T06:15:18.073Z,8.82
2023-02-03T06:17:46.424Z,8.43
2023-02-03T06:20:15.801Z,8.60
2023-02-03T06:22:42.765Z,7.78
2023-02-03T06:25:12.839Z,8.50
2023-02-03T06:27:40.064Z,10.20
2023-02-03T06:30:07.064Z,7.85
2023-02-03T06:32:34.158Z,8.90
2023-02-03T06:35:01.027Z,14.55
2023-02-03T06:37:27.618Z,9.02
2023-02-03T06:39:54.390Z,9.93
2023-02-03T06:42:20.848Z,7.72
2023-02-03T06:44:49.588Z,6.25
2023-02-03T06:47:16.534Z,9.32
2023-02-03T06:49:43.283Z,12.20
2023-02-03T06:52:09.712Z,11.82
2023-02-03T06:54:36.983Z,10.90
2023-02-03T06:57:04.430Z,14.57
2023-02-03T06:59:31.011Z,6.55
2023-02-03T07:01:57.770Z,13.70
2023-02-03T07:04:25.061Z,18.60
2023-02-03T07:06:51.727Z,16.25
2023-02-03T07:09:18.141Z,13.02
2023-02-03T07:11:45.055Z,13.48
2023-02-03T07:14:11.529Z,13.43
2023-02-03T07:16:38.236Z,8.70
2023-02-03T07:19:05.489Z,11.00
2023-02-03T07:21:32.750Z,6.50
2023-02-03T07:23:59.277Z,5.03
2023-02-03T07:26:26.734Z,7.90
2023-02-03T07:28:54.348Z,5.90
2023-02-03T07:31:21.923Z,9.43
2023-02-03T07:33:48.991Z,6.90
2023-02-03T07:36:16.131Z,7.05
2023-02-03T07:38:43.090Z,9.25
2023-02-03T07:41:10.219Z,6.50
2023-02-03T07:43:36.829Z,3.45
2023-02-03T07:46:03.717Z,7.22
2023-02-03T07:48:30.314Z,6.80
2023-02-03T07:50:56.726Z,6.28
2023-02-03T07:53:23.593Z,7.75
2023-02-03T07:55:50.828Z,7.55
2023-02-03T07:58:18.455Z,6.03
2023-02-03T08:00:45.466Z,7.50
2023-02-03T08:03:12.043Z,7.55
2023-02-03T08:05:38.599Z,8.45
2023-02-03T08:08:05.406Z,9.00
2023-02-03T08:10:33.700Z,7.53
2023-02-03T08:13:00.675Z,11.30
2023-02-03T08:15:27.817Z,7.90
2023-02-03T08:17:54.647Z,10.35
2023-02-03T08:20:21.381Z,5.90
2023-02-03T08:22:48.394Z,5.45
2023-02-03T08:25:14.986Z,7.05
2023-02-03T08:27:41.654Z,9.82
2023-02-03T08:30:12.360Z,7.68
2023-02-03T08:32:38.986Z,7.57
2023-02-03T08:35:07.473Z,6.50
2023-02-03T08:37:34.269Z,8.57
2023-02-03T08:40:00.896Z,8.23
2023-02-03T08:42:28.039Z,4.53
2023-02-03T08:44:54.697Z,4.10
2023-02-03T08:47:22.104Z,6.07
2023-02-03T08:49:48.617Z,6.55
2023-02-03T08:52:17.429Z,5.82
2023-02-03T08:54:46.601Z,5.07
2023-02-03T08:57:13.621Z,5.95
2023-02-03T08:59:42.327Z,6.13
2023-02-03T09:02:14.488Z,6.55
2023-02-03T09:04:41.013Z,4.88
2023-02-03T09:07:07.574Z,6.18
2023-02-03T09:09:37.091Z,6.70
2023-02-03T09:12:06.560Z,3.53
2023-02-03T09:14:33.456Z,5.35
2023-02-03T09:17:04.959Z,5.57
2023-02-03T09:19:32.649Z,5.68
2023-02-03T09:22:01.217Z,5.20
2023-02-03T09:24:28.237Z,6.10
2023-02-03T09:26:56.143Z,3.05
2023-02-03T09:29:23.264Z,5.18
2023-02-03T09:31:53.140Z,3.78
2023-02-03T09:34:21.005Z,4.35
2023-02-03T09:36:48.394Z,3.25
2023-02-03T09:39:15.463Z,4.13
2023-02-03T09:42:09.257Z,3.53
2023-02-03T09:44:55.926Z,3.42
2023-02-03T09:47:26.744Z,3.33
2023-02-03T09:50:06.261Z,4.55
2023-02-03T09:52:36.856Z,2.22
2023-02-03T09:58:03.253Z,5.82
2023-02-03T10:00:44.625Z,3.45
2023-02-03T10:03:36.834Z,2.42
2023-02-03T10:06:03.199Z,5.28
2023-02-03T10:08:53.036Z,4.25
2023-02-03T10:11:46.000Z,3.28
2023-02-03T10:14:44.859Z,3.80
2023-02-03T10:17:17.609Z,4.78
2023-02-03T10:19:51.177Z,5.63
2023-02-03T10:22:21.796Z,7.57
2023-02-03T10:24:54.962Z,5.57
2023-02-03T10:27:24.265Z,2.67
2023-02-03T10:30:24.984Z,2.45
2023-02-03T10:32:55.916Z,3.10
2023-02-03T10:35:34.924Z,2.63
2023-02-03T10:38:01.730Z,2.88
2023-02-03T10:40:29.425Z,3.90
2023-02-03T10:43:14.655Z,2.45
2023-02-03T10:45:41.660Z,2.63
2023-02-03T10:48:15.661Z,3.83
2023-02-03T10:50:49.262Z,6.32
2023-02-03T10:53:23.879Z,5.40
2023-02-03T10:56:01.385Z,2.47
2023-02-03T10:58:30.302Z,2.50
2023-02-03T11:01:17.700Z,3.35
2023-02-03T11:03:56.508Z,2.75
2023-02-03T11:06:23.431Z,3.42
2023-02-03T11:08:51.709Z,4.53
2023-02-03T11:11:25.025Z,6.20
2023-02-03T11:14:04.023Z,4.05
2023-02-03T11:16:33.300Z,3.30
2023-02-03T11:19:05.600Z,6.47
2023-02-03T11:21:38.496Z,5.07
2023-02-03T11:24:22.622Z,4.75
2023-02-03T11:26:57.827Z,2.65
2023-02-03T11:29:30.601Z,2.85
2023-02-03T11:32:01.864Z,1.60
2023-02-03T11:34:38.120Z,1.40
2023-02-03T11:37:33.448Z,2.70
2023-02-03T11:40:12.440Z,3.03
2023-02-03T11:42:43.714Z,6.85
2023-02-03T11:45:26.793Z,3.95
2023-02-03T11:48:35.766Z,5.55
2023-02-03T11:51:28.395Z,5.47
2023-02-03T11:54:00.942Z,3.00
2023-02-03T11:56:45.738Z,3.33
2023-02-03T11:59:41.449Z,5.18
2023-02-03T12:02:32.892Z,2.38
2023-02-03T12:05:13.080Z,4.78
2023-02-03T12:08:16.216Z,4.78
2023-02-03T12:11:00.193Z,2.10
2023-02-03T12:14:31.232Z,1.02
2023-02-03T12:17:18.353Z,2.85
2023-02-03T12:20:06.540Z,3.08
2023-02-03T12:22:48.565Z,1.50
2023-02-03T12:25:33.568Z,1.88
2023-02-03T12:28:31.368Z,3.00
2023-02-03T12:31:30.320Z,5.40
2023-02-03T12:34:30.277Z,2.10
2023-02-03T12:37:03.733Z,4.97
2023-02-03T12:40:00.743Z,3.05
2023-02-03T12:42:53.601Z,4.18
2023-02-03T12:45:41.310Z,4.15
2023-02-03T12:48:17.531Z,1.30
2023-02-03T12:51:06.230Z,1.13
2023-02-03T12:53:42.201Z,1.98
2023-02-03T12:56:13.037Z,1.75
2023-02-03T12:58:49.868Z,2.47
2023-02-03T13:01:23.277Z,2.40
2023-02-03T13:04:05.621Z,3.20
2023-02-03T13:06:44.676Z,2.83
2023-02-03T13:09:38.597Z,4.20
2023-02-03T13:12:10.863Z,6.28
2023-02-03T13:15:21.485Z,3.92
2023-02-03T13:18:29.582Z,2.25
2023-02-03T13:20:56.495Z,3.63
2023-02-03T13:23:24.141Z,2.35
2023-02-03T13:26:26.377Z,3.10
2023-02-03T13:28:53.452Z,1.38
2023-02-03T13:31:34.897Z,1.40
2023-02-03T13:34:13.655Z,2.67
2023-02-03T13:36:59.307Z,2.17
2023-02-03T13:39:34.873Z,1.50
2023-02-03T13:42:16.705Z,1.55
2023-02-03T13:44:46.838Z,1.58
2023-02-03T13:47:21.451Z,0.75
2023-02-03T13:49:57.829Z,1.05
2023-02-03T13:52:34.507Z,1.33
2023-02-03T13:55:02.337Z,3.35
2023-02-03T13:57:37.663Z,1.65
2023-02-03T14:00:26.283Z,1.00
2023-02-03T14:02:56.293Z,6.25
2023-02-03T14:05:41.858Z,1.17
2023-02-03T14:08:27.338Z,2.17
2023-02-03T14:11:31.871Z,4.78
2023-02-03T14:14:07.469Z,1.52
2023-02-03T14:16:35.647Z,1.10
2023-02-03T14:19:03.096Z,1.25
2023-02-03T14:21:39.148Z,2.13
2023-02-03T14:24:09.414Z,2.33
2023-02-03T14:26:41.189Z,2.85
2023-02-03T14:29:10.550Z,4.35
2023-02-03T14:31:59.521Z,2.60
2023-02-03T14:34:44.128Z,2.88
2023-02-03T14:37:30.688Z,2.65
2023-02-03T14:40:23.718Z,1.25
2023-02-03T14:43:26.686Z,2.85
2023-02-03T14:46:33.831Z,1.60
2023-02-03T14:49:26.171Z,0.70
2023-02-03T14:52:31.237Z,5.18
2023-02-03T14:55:31.428Z,2.42
2023-02-03T14:58:07.605Z,7.97
2023-02-03T15:00:35.770Z,3.05
2023-02-03T15:03:11.467Z,1.85
2023-02-03T15:05:44.333Z,3.95
2023-02-03T15:08:42.159Z,2.83
2023-02-03T15:11:43.559Z,2.83
2023-02-03T15:14:28.045Z,2.25
2023-02-03T15:17:00.360Z,3.55
2023-02-03T15:19:33.116Z,3.83
2023-02-03T15:22:00.076Z,7.18
2023-02-03T15:24:36.949Z,6.50
2023-02-03T15:27:03.648Z,3.15
2023-02-03T15:29:33.202Z,4.47
2023-02-03T15:32:19.766Z,11.55
2023-02-03T15:34:48.773Z,13.55
2023-02-03T15:37:30.918Z,15.65
2023-02-03T15:40:10.018Z,10.23
2023-02-03T15:42:43.177Z,5.50
2023-02-03T15:45:22.698Z,5.30
2023-02-03T15:47:57.909Z,8.77
2023-02-03T15:50:30.911Z,5.40
2023-02-03T15:53:04.408Z,3.22
2023-02-03T15:55:40.798Z,2.53
2023-02-03T15:58:17.092Z,3.58
2023-02-03T16:00:50.777Z,4.18
2023-02-03T16:03:21.405Z,3.70
2023-02-03T16:05:49.619Z,3.90
2023-02-03T16:08:36.613Z,4.15
2023-02-03T16:11:21.404Z,4.32
2023-02-03T16:13:47.850Z,1.75
2023-02-03T16:16:20.645Z,4.60
2023-02-03T16:18:53.019Z,1.80
2023-02-03T16:21:31.830Z,2.90
2023-02-03T16:23:59.194Z,2.50
2023-02-03T16:26:28.552Z,7.72
2023-02-03T16:29:33.856Z,1.48
2023-02-03T16:32:20.138Z,3.13
2023-02-03T16:35:05.768Z,1.95
2023-02-03T16:38:01.190Z,2.50
2023-02-03T16:40:46.318Z,2.92
2023-02-03T16:43:34.038Z,6.07
2023-02-03T16:46:20.092Z,1.95
2023-02-03T16:49:05.427Z,0.88
2023-02-03T16:51:41.456Z,2.42
2023-02-03T16:54:13.237Z,2.65
2023-02-03T16:56:40.914Z,3.33
2023-02-03T16:59:07.474Z,1.80
2023-02-03T17:01:34.010Z,2.53
2023-02-03T17:04:00.550Z,2.35
2023-02-03T17:06:27.184Z,1.92
2023-02-03T17:08:53.929Z,2.45
2023-02-03T17:11:23.230Z,2.75
2023-02-03T17:13:50.787Z,1.83
2023-02-03T17:16:23.074Z,3.35
2023-02-03T17:18:51.041Z,3.78
2023-02-03T17:21:20.330Z,2.47
2023-02-03T17:23:46.807Z,1.52
2023-02-03T17:26:13.471Z,2.78
2023-02-03T17:28:42.864Z,3.05
2023-02-03T17:31:14.519Z,1.73
2023-02-03T17:33:41.214Z,3.35
2023-02-03T17:36:11.651Z,2.65
2023-02-03T17:55:09.846Z,2.80
2023-02-03T17:57:39.447Z,4.25
2023-02-03T18:00:06.936Z,2.33
2023-02-03T18:02:39.050Z,2.70
2023-02-03T18:05:05.872Z,3.70
2023-02-03T18:07:32.294Z,3.67
2023-02-03T18:09:59.252Z,2.30
2023-02-03T18:12:26.040Z,3.95
2023-02-03T18:14:52.930Z,4.28
2023-02-03T18:17:19.362Z,1.83
2023-02-03T18:19:49.215Z,2.50
2023-02-03T18:22:21.767Z,2.53
2023-02-03T18:24:51.861Z,2.45
2023-02-03T18:27:19.030Z,2.97
2023-02-03T18:29:46.593Z,2.92
2023-02-03T18:32:14.859Z,2.92
2023-02-03T18:34:41.489Z,2.58
2023-02-03T18:37:08.809Z,3.10
2023-02-03T18:39:35.667Z,4.38
2023-02-03T18:42:02.259Z,2.78
2023-02-03T18:44:29.124Z,2.30
2023-02-03T18:46:55.611Z,2.70
2023-02-03T18:49:22.932Z,2.25
2023-02-03T18:51:49.433Z,2.35
2023-02-03T18:54:16.708Z,3.53
2023-02-03T18:56:43.540Z,2.03
2023-02-03T18:59:11.187Z,2.55
2023-02-03T19:01:41.441Z,3.53
2023-02-03T19:04:08.206Z,2.35
2023-02-03T19:06:36.065Z,2.42
2023-02-03T19:09:04.003Z,2.83
2023-02-03T19:11:31.367Z,2.88
2023-02-03T19:13:57.915Z,3.00
2023-02-03T19:16:25.012Z,4.07
2023-02-03T19:18:51.996Z,5.57
2023-02-03T19:21:18.733Z,3.50
2023-02-03T19:23:45.392Z,4.55
2023-02-03T19:26:12.556Z,6.40
2023-02-03T19:28:40.114Z,3.95
2023-02-03T19:31:15.593Z,3.60
2023-02-03T19:33:42.726Z,3.75
2023-02-03T19:36:11.026Z,3.67
2023-02-03T19:38:38.013Z,4.38
2023-02-03T19:41:04.867Z,8.05
2023-02-03T19:43:31.946Z,4.28
2023-02-03T19:45:59.118Z,4.70
2023-02-03T19:48:25.926Z,3.92
2023-02-03T19:50:52.634Z,4.32
2023-02-03T19:53:19.321Z,3.38
2023-02-03T19:55:46.467Z,6.03
2023-02-03T19:58:13.934Z,2.55
2023-02-03T20:00:42.445Z,5.65
2023-02-03T20:03:10.432Z,2.22
2023-02-03T20:05:38.202Z,3.78
2023-02-03T20:08:05.214Z,4.25
2023-02-03T20:10:32.941Z,4.88
2023-02-03T20:13:00.936Z,3.85
2023-02-03T20:15:27.672Z,3.90
2023-02-03T20:17:54.860Z,3.33
2023-02-03T20:20:21.825Z,7.03
2023-02-03T20:22:49.153Z,4.85
2023-02-03T20:25:16.234Z,4.53
2023-02-03T20:27:43.323Z,4.20
2023-02-03T20:30:11.024Z,3.25
2023-02-03T20:32:38.094Z,3.78
2023-02-03T20:35:06.408Z,3.83
2023-02-03T20:37:35.983Z,4.85
2023-02-03T20:40:06.190Z,3.17
2023-02-03T20:42:33.893Z,5.13
2023-02-03T20:45:00.397Z,2.88
2023-02-03T20:47:27.219Z,2.72
2023-02-03T20:49:54.922Z,6.93
2023-02-03T20:52:21.588Z,5.95
2023-02-03T20:54:48.740Z,4.50
2023-02-03T20:57:18.714Z,6.28
2023-02-03T20:59:46.491Z,7.03
2023-02-03T21:02:53.848Z,5.70
2023-02-03T21:05:27.568Z,4.68
2023-02-03T21:07:54.580Z,5.82
2023-02-03T21:10:24.778Z,5.97
2023-02-03T21:12:52.050Z,7.03
2023-02-03T21:15:27.696Z,5.00
2023-02-03T21:17:55.046Z,8.90
2023-02-03T21:20:29.086Z,7.75
2023-02-03T21:22:56.708Z,7.03
2023-02-03T21:25:34.343Z,5.18
2023-02-03T21:28:01.152Z,8.63
2023-02-03T21:30:32.534Z,7.40
2023-02-03T21:33:00.302Z,9.23
2023-02-03T21:35:37.823Z,7.70
2023-02-03T21:38:31.269Z,7.30
2023-02-03T21:40:59.422Z,5.47
2023-02-03T21:43:26.111Z,11.32
2023-02-03T21:45:52.942Z,9.05
2023-02-03T21:48:23.958Z,7.53
2023-02-03T21:50:51.073Z,6.70
2023-02-03T21:53:31.986Z,8.48
2023-02-03T21:56:16.913Z,14.80
2023-02-03T21:58:45.002Z,11.07
2023-02-03T22:01:16.351Z,9.15
2023-02-03T22:03:47.438Z,9.77
2023-02-03T22:06:20.222Z,8.90
2023-02-03T22:08:48.618Z,18.50
2023-02-03T22:11:16.886Z,9.10
2023-02-03T22:13:43.384Z,8.73
2023-02-03T22:16:11.512Z,10.48
2023-02-03T22:18:39.588Z,8.13
2023-02-03T22:21:06.264Z,10.15
2023-02-03T22:23:33.574Z,10.35
2023-02-03T22:26:00.581Z,11.15
2023-02-03T22:28:27.168Z,7.65
2023-02-03T22:30:53.771Z,11.75
2023-02-03T22:33:20.468Z,7.32
2023-02-03T22:35:47.021Z,8.77
2023-02-03T22:38:13.553Z,10.13
2023-02-03T22:40:40.483Z,6.93
2023-02-03T22:43:07.017Z,14.52
2023-02-03T22:45:33.772Z,8.32
2023-02-03T22:48:00.621Z,7.53
2023-02-03T22:50:35.401Z,9.70
2023-02-03T22:53:04.455Z,9.20
2023-02-03T22:55:31.545Z,11.23
2023-02-03T22:57:59.365Z,7.50
2023-02-03T23:00:26.823Z,8.93
2023-02-03T23:02:54.077Z,8.43
2023-02-03T23:05:21.314Z,10.80
2023-02-03T23:07:48.529Z,7.93
2023-02-03T23:10:21.165Z,9.40
2023-02-03T23:12:48.530Z,8.15
2023-02-03T23:15:15.585Z,7.05
2023-02-03T23:17:42.096Z,9.75
2023-02-03T23:20:09.767Z,8.85
2023-02-03T23:22:36.820Z,7.63
2023-02-03T23:25:04.479Z,7.82
2023-02-03T23:27:30.953Z,8.90
2023-02-03T23:29:57.635Z,8.25
2023-02-03T23:32:24.212Z,8.75
2023-02-03T23:35:09.434Z,5.78
2023-02-03T23:37:36.244Z,6.97
2023-02-03T23:40:04.355Z,6.13
2023-02-03T23:42:31.374Z,5.68
2023-02-03T23:44:59.081Z,5.15
2023-02-03T23:47:25.686Z,11.27
2023-02-03T23:49:52.482Z,7.78
2023-02-03T23:52:19.141Z,8.82
2023-02-03T23:54:46.192Z,12.75
2023-02-03T23:57:13.196Z,9.77
2023-02-03T23:59:40.144Z,13.60
